createdAt,value
2024-05-09T00:00:45.809Z,2.70
2024-05-09T00:03:13.865Z,3.03
2024-05-09T00:05:42.274Z,2.67
2024-05-09T00:08:11.287Z,2.45
2024-05-09T00:10:40.948Z,2.28
2024-05-09T00:13:10.504Z,2.55
2024-05-09T00:15:39.660Z,2.40
2024-05-09T00:18:08.164Z,2.35
2024-05-09T00:20:40.980Z,2.38
2024-05-09T00:23:13.982Z,2.65
2024-05-09T00:25:45.244Z,2.50
2024-05-09T00:28:13.459Z,2.40
2024-05-09T00:30:41.312Z,2.58
2024-05-09T00:33:10.366Z,2.75
2024-05-09T00:35:39.420Z,2.50
2024-05-09T00:38:07.341Z,2.95
2024-05-09T00:40:40.510Z,2.75
2024-05-09T00:43:11.405Z,2.80
2024-05-09T00:45:39.540Z,2.97
2024-05-09T00:48:09.539Z,2.72
2024-05-09T00:50:41.881Z,2.80
2024-05-09T00:53:14.002Z,2.90
2024-05-09T00:55:41.843Z,3.40
2024-05-09T00:58:11.435Z,3.70
2024-05-09T01:00:40.934Z,3.60
2024-05-09T01:03:12.131Z,3.50
2024-05-09T01:05:41.791Z,4.10
2024-05-09T01:08:10.879Z,3.45
2024-05-09T01:10:40.298Z,3.78
2024-05-09T01:13:09.394Z,3.70
2024-05-09T01:15:37.118Z,3.40
2024-05-09T01:18:13.226Z,3.33
2024-05-09T01:20:44.115Z,3.30
2024-05-09T01:23:15.235Z,3.38
2024-05-09T01:25:47.315Z,3.50
2024-05-09T01:28:16.547Z,7.00
2024-05-09T01:33:12.616Z,3.10
2024-05-09T01:35:42.455Z,3.22
2024-05-09T01:38:17.431Z,2.83
2024-05-09T01:40:46.134Z,2.90
2024-05-09T01:43:13.886Z,3.05
2024-05-09T01:45:41.810Z,3.15
2024-05-09T01:48:10.769Z,2.67
2024-05-09T01:50:41.802Z,3.03
2024-05-09T01:53:15.351Z,2.65
2024-05-09T01:55:44.302Z,2.90
2024-05-09T01:58:12.026Z,2.33
2024-05-09T02:00:42.564Z,2.60
2024-05-09T02:03:15.007Z,2.33
2024-05-09T02:05:48.531Z,2.05
2024-05-09T02:08:22.045Z,2.58
2024-05-09T02:10:50.850Z,2.05
2024-05-09T02:13:18.713Z,2.45
2024-05-09T02:15:47.126Z,1.45
2024-05-09T02:18:15.098Z,2.00
2024-05-09T02:20:43.711Z,3.13
2024-05-09T02:23:11.949Z,2.53
2024-05-09T02:25:39.850Z,1.92
2024-05-09T02:28:07.471Z,1.70
2024-05-09T02:30:39.720Z,2.67
2024-05-09T02:33:14.175Z,2.00
2024-05-09T02:35:44.133Z,2.70
2024-05-09T02:38:12.623Z,1.92
2024-05-09T02:40:40.787Z,1.90
2024-05-09T02:43:10.395Z,2.28
2024-05-09T02:45:39.961Z,1.27
2024-05-09T02:48:08.434Z,1.50
2024-05-09T02:50:39.174Z,1.77
2024-05-09T02:53:09.337Z,1.35
2024-05-09T02:55:38.463Z,1.38
2024-05-09T02:58:07.946Z,1.17
2024-05-09T03:00:39.748Z,2.05
2024-05-09T03:03:12.785Z,1.45
2024-05-09T03:05:43.283Z,1.38
2024-05-09T03:08:11.134Z,3.65
2024-05-09T03:10:39.668Z,1.65
2024-05-09T03:13:13.494Z,1.23
2024-05-09T03:15:42.951Z,1.13
2024-05-09T03:18:11.360Z,0.80
2024-05-09T03:20:40.187Z,1.00
2024-05-09T03:23:09.605Z,0.73
2024-05-09T03:25:38.643Z,0.45
2024-05-09T03:28:07.094Z,1.20
2024-05-09T03:30:41.173Z,1.33
2024-05-09T03:33:19.094Z,0.70
2024-05-09T03:35:49.734Z,0.80
2024-05-09T03:40:48.041Z,0.80
2024-05-09T03:43:16.981Z,1.23
2024-05-09T03:45:45.745Z,0.60
2024-05-09T03:48:15.063Z,1.23
2024-05-09T03:53:13.203Z,0.70
2024-05-09T03:55:41.585Z,0.80
2024-05-09T03:58:10.789Z,0.85
2024-05-09T04:00:40.728Z,0.60
2024-05-09T04:03:11.479Z,0.57
2024-05-09T04:05:43.456Z,0.80
2024-05-09T04:08:15.697Z,0.82
2024-05-09T04:10:43.963Z,0.82
2024-05-09T04:13:12.141Z,0.60
2024-05-09T04:15:40.987Z,1.00
2024-05-09T04:18:09.596Z,0.88
2024-05-09T04:20:40.502Z,0.93
2024-05-09T04:23:13.798Z,0.75
2024-05-09T04:25:45.481Z,0.70
2024-05-09T04:28:16.213Z,0.70
2024-05-09T04:30:44.461Z,0.80
2024-05-09T04:33:14.672Z,0.95
2024-05-09T04:35:44.142Z,0.82
2024-05-09T04:38:13.963Z,0.60
2024-05-09T04:40:44.121Z,0.50
2024-05-09T04:43:20.559Z,0.60
2024-05-09T04:45:48.530Z,0.93
2024-05-09T04:48:17.232Z,0.80
2024-05-09T04:50:47.041Z,0.60
2024-05-09T04:53:18.372Z,1.70
2024-05-09T04:55:47.003Z,1.30
2024-05-09T04:58:15.524Z,1.10
2024-05-09T05:00:46.418Z,0.70
2024-05-09T05:03:16.133Z,0.88
2024-05-09T05:05:46.108Z,0.80
2024-05-09T05:08:17.850Z,0.70
2024-05-09T05:10:49.237Z,1.00
2024-05-09T05:13:21.087Z,1.13
2024-05-09T05:15:52.274Z,0.65
2024-05-09T05:18:20.447Z,0.88
2024-05-09T05:20:48.390Z,0.90
2024-05-09T05:23:18.977Z,0.80
2024-05-09T05:25:54.503Z,0.70
2024-05-09T05:28:22.661Z,0.70
2024-05-09T05:30:50.539Z,0.70
2024-05-09T05:33:19.294Z,1.13
2024-05-09T05:35:48.178Z,0.70
2024-05-09T05:38:16.155Z,0.70
2024-05-09T05:40:43.915Z,0.70
2024-05-09T05:43:17.373Z,0.55
2024-05-09T05:45:46.028Z,0.50
2024-05-09T05:48:17.128Z,0.77
2024-05-09T05:50:45.556Z,0.60
2024-05-09T05:53:16.875Z,0.60
2024-05-09T05:55:44.607Z,0.88
2024-05-09T05:58:14.568Z,0.52
2024-05-09T06:00:42.847Z,0.50
2024-05-09T06:03:12.929Z,0.50
2024-05-09T06:05:43.957Z,0.70
2024-05-09T06:08:12.510Z,0.82
2024-05-09T06:10:41.507Z,0.70
2024-05-09T06:13:14.320Z,0.75
2024-05-09T06:15:43.830Z,0.60
2024-05-09T06:18:12.619Z,0.68
2024-05-09T06:20:44.434Z,0.52
2024-05-09T06:23:13.114Z,0.75
2024-05-09T06:25:42.432Z,0.82
2024-05-09T06:28:10.798Z,1.17
2024-05-09T06:30:42.272Z,0.90
2024-05-09T06:33:14.447Z,0.63
2024-05-09T06:35:44.391Z,1.05
2024-05-09T06:38:12.640Z,0.70
2024-05-09T06:40:43.068Z,0.52
2024-05-09T06:43:13.271Z,0.50
2024-05-09T06:48:10.150Z,0.70
2024-05-09T06:50:39.717Z,0.70
2024-05-09T06:53:09.484Z,0.70
2024-05-09T06:55:38.158Z,0.60
2024-05-09T06:58:09.603Z,0.50
2024-05-09T07:00:40.501Z,0.90
2024-05-09T07:03:16.528Z,2.35
2024-05-09T07:05:47.680Z,0.65
2024-05-09T07:08:16.873Z,0.65
2024-05-09T07:10:45.033Z,0.95
2024-05-09T07:13:14.492Z,0.45
2024-05-09T07:15:43.249Z,0.73
2024-05-09T07:18:17.131Z,0.80
2024-05-09T07:20:46.885Z,0.80
2024-05-09T07:23:14.899Z,0.73
2024-05-09T07:25:43.075Z,0.52
2024-05-09T07:28:13.388Z,0.50
2024-05-09T07:30:41.101Z,0.57
2024-05-09T07:33:08.835Z,0.40
2024-05-09T07:35:36.792Z,0.40
2024-05-09T07:38:04.421Z,0.38
2024-05-09T07:40:36.216Z,0.50
2024-05-09T07:43:08.415Z,0.47
2024-05-09T07:45:48.378Z,0.68
2024-05-09T07:52:38.856Z,0.60
2024-05-09T07:53:47.754Z,0.88
2024-05-09T07:56:21.213Z,0.60
2024-05-09T07:58:51.530Z,0.40
2024-05-09T08:01:19.927Z,0.40
2024-05-09T08:03:49.727Z,0.60
2024-05-09T08:06:17.495Z,0.50
2024-05-09T08:11:17.529Z,0.43
2024-05-09T08:13:45.590Z,0.60
2024-05-09T08:16:14.919Z,0.40
2024-05-09T08:18:43.199Z,0.40
2024-05-09T08:21:11.588Z,0.50
2024-05-09T08:23:39.213Z,0.52
2024-05-09T08:26:06.681Z,0.43
2024-05-09T08:28:34.406Z,0.40
2024-05-09T08:31:06.050Z,0.50
2024-05-09T08:33:35.022Z,0.50
2024-05-09T08:36:02.851Z,0.60
2024-05-09T08:38:30.445Z,0.47
2024-05-09T08:40:58.100Z,0.57
2024-05-09T08:43:27.514Z,0.47
2024-05-09T08:45:55.236Z,0.50
2024-05-09T08:48:24.914Z,0.32
2024-05-09T08:50:53.822Z,0.40
2024-05-09T08:53:23.269Z,0.40
2024-05-09T08:55:52.533Z,0.40
2024-05-09T08:58:20.862Z,0.40
2024-05-09T09:00:49.450Z,0.40
2024-05-09T09:03:23.316Z,0.30
2024-05-09T09:06:02.492Z,0.30
2024-05-09T09:11:00.694Z,0.45
2024-05-09T09:13:28.454Z,1.20
2024-05-09T09:15:59.629Z,0.75
2024-05-09T09:18:28.220Z,0.40
2024-05-09T09:20:56.861Z,0.50
2024-05-09T09:23:24.435Z,0.60
2024-05-09T09:25:52.270Z,0.38
2024-05-09T09:28:23.570Z,0.30
2024-05-09T09:30:51.504Z,0.45
2024-05-09T09:33:19.670Z,0.40
2024-05-09T09:35:47.496Z,0.40
2024-05-09T09:38:19.123Z,0.50
2024-05-09T09:40:50.804Z,0.50
2024-05-09T09:43:35.005Z,0.40
2024-05-09T09:46:02.334Z,0.30
2024-05-09T09:48:31.211Z,0.40
2024-05-09T09:50:58.699Z,0.40
2024-05-09T09:53:26.166Z,0.70
2024-05-09T09:55:53.527Z,0.30
2024-05-09T09:58:21.202Z,0.43
2024-05-09T10:00:48.542Z,0.40
2024-05-09T10:03:16.264Z,0.38
2024-05-09T10:05:46.991Z,0.40
2024-05-09T10:08:15.594Z,0.40
2024-05-09T10:10:46.526Z,0.40
2024-05-09T10:13:14.085Z,0.30
2024-05-09T10:15:48.967Z,0.60
2024-05-09T10:18:16.648Z,0.35
2024-05-09T10:20:44.606Z,0.40
2024-05-09T10:23:24.618Z,0.40
2024-05-09T10:26:02.026Z,0.30
2024-05-09T10:28:30.041Z,0.38
2024-05-09T10:31:11.043Z,0.40
2024-05-09T10:33:39.505Z,0.43
2024-05-09T10:36:20.115Z,0.30
2024-05-09T10:38:48.789Z,0.30
2024-05-09T10:41:19.285Z,0.75
2024-05-09T10:43:47.619Z,0.30
2024-05-09T10:46:15.171Z,0.40
2024-05-09T10:48:43.855Z,0.50
2024-05-09T10:53:45.318Z,0.40
2024-05-09T10:56:14.614Z,0.30
2024-05-09T10:58:42.330Z,0.30
2024-05-09T11:01:10.482Z,0.40
2024-05-09T11:03:38.983Z,0.70
2024-05-09T11:08:35.507Z,0.32
2024-05-09T11:11:07.681Z,0.20
2024-05-09T11:13:36.694Z,0.20
2024-05-09T11:16:05.208Z,0.30
2024-05-09T11:18:36.612Z,0.20
2024-05-09T11:21:11.874Z,0.40
2024-05-09T11:23:39.156Z,0.20
2024-05-09T11:26:07.266Z,0.35
2024-05-09T11:28:36.153Z,0.30
2024-05-09T11:31:10.661Z,0.30
2024-05-09T11:33:39.324Z,0.85
2024-05-09T11:36:07.277Z,0.32
2024-05-09T11:38:34.613Z,0.83
2024-05-09T11:41:02.550Z,0.32
2024-05-09T11:43:29.904Z,0.40
2024-05-09T11:45:57.818Z,0.20
2024-05-09T11:48:25.958Z,0.35
2024-05-09T11:50:54.515Z,0.25
2024-05-09T11:53:21.773Z,0.25
2024-05-09T11:55:49.012Z,0.30
2024-05-09T11:58:18.355Z,0.30
2024-05-09T12:00:46.742Z,0.30
2024-05-09T12:03:14.337Z,0.38
2024-05-09T12:05:41.861Z,0.57
2024-05-09T12:08:09.336Z,0.30
2024-05-09T12:10:37.205Z,0.57
2024-05-09T12:13:06.539Z,0.40
2024-05-09T12:15:37.843Z,0.30
2024-05-09T12:18:06.584Z,0.40
2024-05-09T12:20:38.138Z,0.30
2024-05-09T12:23:08.387Z,0.20
2024-05-09T12:25:37.499Z,0.40
2024-05-09T12:28:05.046Z,0.30
2024-05-09T12:30:37.683Z,0.20
2024-05-09T12:33:08.718Z,0.50
2024-05-09T12:35:36.384Z,0.40
2024-05-09T12:38:03.725Z,0.30
2024-05-09T12:40:35.926Z,0.30
2024-05-09T12:43:06.844Z,0.20
2024-05-09T12:45:34.393Z,0.30
2024-05-09T12:48:01.765Z,0.28
2024-05-09T12:50:32.697Z,0.30
2024-05-09T12:53:02.617Z,0.25
2024-05-09T12:55:37.175Z,0.30
2024-05-09T12:58:12.124Z,0.40
2024-05-09T13:00:39.715Z,0.32
2024-05-09T13:03:07.452Z,0.20
2024-05-09T13:05:34.902Z,0.40
2024-05-09T13:08:03.695Z,0.20
2024-05-09T13:10:32.870Z,0.20
2024-05-09T13:13:01.959Z,0.10
2024-05-09T13:15:34.967Z,0.20
2024-05-09T13:18:03.747Z,0.30
2024-05-09T13:20:34.526Z,0.20
2024-05-09T13:23:04.360Z,0.20
2024-05-09T13:25:32.021Z,0.20
2024-05-09T13:33:02.011Z,0.20
2024-05-09T13:35:30.266Z,0.30
2024-05-09T13:37:57.711Z,0.20
2024-05-09T13:40:32.208Z,0.40
2024-05-09T13:43:02.328Z,0.30
2024-05-09T13:45:29.698Z,0.20
2024-05-09T13:47:57.360Z,0.30
2024-05-09T13:50:33.155Z,0.60
2024-05-09T13:53:03.413Z,0.30
2024-05-09T13:55:30.689Z,0.35
2024-05-09T13:57:57.968Z,0.20
2024-05-09T14:00:41.259Z,0.20
2024-05-09T14:03:12.427Z,0.35
2024-05-09T14:05:39.857Z,0.30
2024-05-09T14:08:08.803Z,0.30
2024-05-09T14:10:36.221Z,0.55
2024-05-09T14:13:03.438Z,0.22
2024-05-09T14:15:31.059Z,0.50
2024-05-09T14:17:58.433Z,0.30
2024-05-09T14:20:31.116Z,0.50
2024-05-09T14:23:02.796Z,0.40
2024-05-09T14:25:32.217Z,0.38
2024-05-09T14:28:00.445Z,0.40
2024-05-09T14:30:34.858Z,0.40
2024-05-09T14:33:06.371Z,0.52
2024-05-09T14:35:34.635Z,0.40
2024-05-09T14:38:02.096Z,0.40
2024-05-09T14:40:39.376Z,0.40
2024-05-09T14:43:11.205Z,0.45
2024-05-09T14:45:38.796Z,0.40
2024-05-09T14:48:06.978Z,0.50
2024-05-09T14:50:37.918Z,0.50
2024-05-09T14:53:07.684Z,0.60
2024-05-09T14:55:42.907Z,0.60
2024-05-09T14:58:11.667Z,0.40
2024-05-09T15:00:44.835Z,0.40
2024-05-09T15:03:15.584Z,0.50
2024-05-09T15:05:43.202Z,0.60
2024-05-09T15:08:10.363Z,0.40
2024-05-09T15:10:38.923Z,0.50
2024-05-09T15:13:08.119Z,0.40
2024-05-09T15:15:37.621Z,0.45
2024-05-09T15:18:06.184Z,0.60
2024-05-09T15:20:36.360Z,0.55
2024-05-09T15:23:05.401Z,0.35
2024-05-09T15:25:36.901Z,0.80
2024-05-09T15:28:05.133Z,0.50
2024-05-09T15:30:33.944Z,0.30
2024-05-09T15:33:06.233Z,0.30
2024-05-09T15:35:34.510Z,0.30
2024-05-09T15:38:03.572Z,0.30
2024-05-09T15:40:38.321Z,0.30
2024-05-09T15:43:08.977Z,0.50
2024-05-09T15:45:37.520Z,0.20
2024-05-09T15:48:05.741Z,0.32
2024-05-09T15:50:38.761Z,0.30
2024-05-09T15:53:13.270Z,0.43
2024-05-09T15:55:41.621Z,0.57
2024-05-09T15:58:09.052Z,0.30
2024-05-09T16:00:40.059Z,0.43
2024-05-09T16:03:10.496Z,0.20
2024-05-09T16:05:38.677Z,0.40
2024-05-09T16:08:06.471Z,0.20
2024-05-09T16:10:35.017Z,0.77
2024-05-09T16:13:03.648Z,0.43
2024-05-09T16:15:31.956Z,0.30
2024-05-09T16:17:59.956Z,0.20
2024-05-09T16:20:35.207Z,0.40
2024-05-09T16:23:08.066Z,0.63
2024-05-09T16:28:06.325Z,0.40
2024-05-09T16:30:36.663Z,0.30
2024-05-09T16:33:05.108Z,0.60
2024-05-09T16:35:33.131Z,0.45
2024-05-09T16:38:02.740Z,0.32
2024-05-09T16:40:37.091Z,0.40
2024-05-09T16:43:07.939Z,0.30
2024-05-09T16:45:35.626Z,0.38
2024-05-09T16:48:03.382Z,0.70
2024-05-09T16:50:34.250Z,0.68
2024-05-09T16:53:03.487Z,0.38
2024-05-09T16:55:31.188Z,0.47
2024-05-09T16:57:58.564Z,0.63
2024-05-09T17:00:35.948Z,0.30
2024-05-09T17:03:10.047Z,0.60
2024-05-09T17:05:38.294Z,0.30
2024-05-09T17:08:06.310Z,0.60
2024-05-09T17:10:35.196Z,0.60
2024-05-09T17:13:07.395Z,0.45
2024-05-09T17:15:37.024Z,0.57
2024-05-09T17:18:05.811Z,1.30
2024-05-09T17:20:36.140Z,0.93
2024-05-09T17:23:06.164Z,0.60
2024-05-09T17:25:34.533Z,0.30
2024-05-09T17:28:07.908Z,0.38
2024-05-09T17:30:38.350Z,0.38
2024-05-09T17:33:09.099Z,0.40
2024-05-09T17:35:37.351Z,0.40
2024-05-09T17:38:05.579Z,0.43
2024-05-09T17:40:36.051Z,0.73
2024-05-09T17:43:06.451Z,0.75
2024-05-09T17:45:35.137Z,0.40
2024-05-09T17:48:03.063Z,0.40
2024-05-09T17:50:35.685Z,1.05
2024-05-09T17:53:05.549Z,0.80
2024-05-09T17:55:33.310Z,0.52
2024-05-09T17:58:01.057Z,0.60
2024-05-09T18:00:36.743Z,0.70
2024-05-09T18:03:08.550Z,1.58
2024-05-09T18:05:37.154Z,1.73
2024-05-09T18:08:05.684Z,2.08
2024-05-09T18:10:37.204Z,0.85
2024-05-09T18:13:07.600Z,0.73
2024-05-09T18:15:35.094Z,0.60
2024-05-09T18:18:03.653Z,0.65
2024-05-09T18:20:40.687Z,0.82
2024-05-09T18:23:13.986Z,0.57
2024-05-09T18:25:41.876Z,0.70
2024-05-09T18:28:09.556Z,0.70
2024-05-09T18:30:37.597Z,0.80
2024-05-09T18:33:07.241Z,0.70
2024-05-09T18:35:36.254Z,0.70
2024-05-09T18:38:04.205Z,0.65
2024-05-09T18:40:35.423Z,0.45
2024-05-09T18:43:07.079Z,0.88
2024-05-09T18:45:36.891Z,0.50
2024-05-09T18:48:08.240Z,0.80
2024-05-09T18:50:39.472Z,1.10
2024-05-09T18:53:09.138Z,0.70
2024-05-09T18:55:36.596Z,0.60
2024-05-09T18:58:05.054Z,4.13
2024-05-09T19:00:36.291Z,1.23
2024-05-09T19:03:12.222Z,1.13
2024-05-09T19:05:42.578Z,0.80
2024-05-09T19:08:10.830Z,0.85
2024-05-09T19:10:39.140Z,0.70
2024-05-09T19:13:10.824Z,0.80
2024-05-09T19:15:41.115Z,1.23
2024-05-09T19:18:09.740Z,0.50
2024-05-09T19:20:37.809Z,0.70
2024-05-09T19:23:07.068Z,0.60
2024-05-09T19:28:02.353Z,0.73
2024-05-09T19:30:37.959Z,1.13
2024-05-09T19:33:14.849Z,0.88
2024-05-09T19:35:43.074Z,0.60
2024-05-09T19:38:10.327Z,0.80
2024-05-09T19:40:37.717Z,0.98
2024-05-09T19:43:06.431Z,1.00
2024-05-09T19:45:35.491Z,1.33
2024-05-09T19:48:04.241Z,2.67
2024-05-09T19:50:39.869Z,1.45
2024-05-09T19:53:11.664Z,1.10
2024-05-09T19:55:40.387Z,0.90
2024-05-09T19:58:09.166Z,1.50
2024-05-09T20:00:39.583Z,0.90
2024-05-09T20:03:09.626Z,0.90
2024-05-09T20:05:37.795Z,1.27
2024-05-09T20:08:05.968Z,1.65
2024-05-09T20:10:35.418Z,1.10
2024-05-09T20:13:05.337Z,1.95
2024-05-09T20:15:38.264Z,0.75
2024-05-09T20:18:06.787Z,0.80
2024-05-09T20:20:40.421Z,0.93
2024-05-09T20:23:11.864Z,0.80
2024-05-09T20:25:40.011Z,0.75
2024-05-09T20:28:07.561Z,0.90
2024-05-09T20:30:36.103Z,3.97
2024-05-09T20:33:05.297Z,0.90
2024-05-09T20:35:34.414Z,1.23
2024-05-09T20:38:03.222Z,1.10
2024-05-09T20:43:02.314Z,0.70
2024-05-09T20:45:29.591Z,0.68
2024-05-09T20:47:57.873Z,0.70
2024-05-09T20:50:35.593Z,1.03
2024-05-09T20:53:08.754Z,1.08
2024-05-09T20:55:36.164Z,0.80
2024-05-09T20:58:03.451Z,0.75
2024-05-09T21:00:38.916Z,1.00
2024-05-09T21:05:37.099Z,0.80
2024-05-09T21:08:05.165Z,0.60
2024-05-09T21:10:33.869Z,0.95
2024-05-09T21:13:02.798Z,1.60
2024-05-09T21:15:31.115Z,1.17
2024-05-09T21:17:59.153Z,0.73
2024-05-09T21:20:31.723Z,1.05
2024-05-09T21:23:01.448Z,0.60
2024-05-09T21:25:29.304Z,1.35
2024-05-09T21:27:56.652Z,0.80
2024-05-09T21:30:32.656Z,0.80
2024-05-09T21:33:12.952Z,0.70
2024-05-09T21:35:42.109Z,0.77
2024-05-09T21:38:09.301Z,1.73
2024-05-09T21:40:38.030Z,0.60
2024-05-09T21:45:33.415Z,0.93
2024-05-09T21:48:00.929Z,0.95
2024-05-09T21:50:35.850Z,0.70
2024-05-09T21:53:07.544Z,0.68
2024-05-09T21:55:34.847Z,0.90
2024-05-09T21:58:02.916Z,1.27
2024-05-09T22:00:36.350Z,1.20
2024-05-09T22:03:06.156Z,0.80
2024-05-09T22:05:34.055Z,1.77
2024-05-09T22:08:01.572Z,0.70
2024-05-09T22:10:34.052Z,1.35
2024-05-09T22:13:04.154Z,0.60
2024-05-09T22:15:36.442Z,0.73
2024-05-09T22:18:05.389Z,0.70
2024-05-09T22:20:37.370Z,0.90
2024-05-09T22:23:06.636Z,0.88
2024-05-09T22:25:34.159Z,0.88
2024-05-09T22:28:02.201Z,0.80
2024-05-09T22:33:00.002Z,0.70
2024-05-09T22:35:27.146Z,1.00
2024-05-09T22:37:54.403Z,0.93
2024-05-09T22:40:29.495Z,1.10
2024-05-09T22:43:06.379Z,0.90
2024-05-09T22:45:33.768Z,0.70
2024-05-09T22:48:01.426Z,1.33
2024-05-09T22:50:33.150Z,0.90
2024-05-09T22:53:00.984Z,1.20
2024-05-09T22:55:28.298Z,0.93
2024-05-09T22:57:56.057Z,0.90
2024-05-09T23:00:31.384Z,1.10
2024-05-09T23:03:03.316Z,1.20
2024-05-09T23:05:32.506Z,0.82
2024-05-09T23:08:00.952Z,0.95
2024-05-09T23:10:35.254Z,1.00
2024-05-09T23:13:04.812Z,1.23
2024-05-09T23:15:32.215Z,0.85
2024-05-09T23:17:59.895Z,1.02
2024-05-09T23:20:36.045Z,1.10
2024-05-09T23:23:06.858Z,1.10
2024-05-09T23:25:34.213Z,1.00
2024-05-09T23:28:01.671Z,1.00
2024-05-09T23:30:36.829Z,0.82
2024-05-09T23:33:07.247Z,0.80
2024-05-09T23:35:34.727Z,0.60
2024-05-09T23:38:01.823Z,0.60
2024-05-09T23:42:59.159Z,1.02
2024-05-09T23:45:26.395Z,0.95
2024-05-09T23:47:53.756Z,1.00
2024-05-09T23:50:26.756Z,0.70
2024-05-09T23:53:00.832Z,0.90
2024-05-09T23:55:28.530Z,0.77
2024-05-09T23:57:55.721Z,0.70
